Indian River Shores, Florida
Current Conditions -  °F | °C
As of 5:53 PM on Tuesday 27 Jan 2015 (Local Time) from KVRB Reporting Station
Clear Clear  
Wind Chill: 64°   Ceiling: Unl
Heat Index: 64°   Visibility: 10mi
Dew Point: 45°   Wind: 15mph
Humidity: 50%   Direction: 260°W
Pressure: 29.95"   Gusts: NA
Location:  27.7066°N, 80.3826°W
Report Text: KVRB 272253Z 26013KT 10SM CLR 18/07 A2995 RMK AO2 SLP140 T01780072
Loading
Personal Weather Stations






























Interactive Weather Map New forecast layout! Learn more

10-Day Weather Forecast

Advertisements
Track Severe Weather on mobile